الصفحة الرئيسية
METAR-TAF:

METAR-TAF

مطار :

La Ceiba, هندوراس

دائرة عرض: 15-44N, خط طول: 086-52W, ارتفاع: 3 متر

مراقبة الطقس الحالي

تاريخ ووقت الإصدار 53 دقيقة قبل الساعة 15:00UTC
ريح 2 عقدة من الشمال الشرقي
درجة الحرارة 29°درجة مئوية
الرطوبة 66%
ضغط 1013 hPa
الرؤية 10 كم أو أكثر
غيوم قليلة على ارتفاع 2500 قدم

METAR: MHLC 241500Z 05002KT 9999 FEW025 29/22 Q1013 A2992 NOSIG

زمن: 09:53 (15:53 UTC)

توقعات

تاريخ ووقت الإصدار 5ساعات و 23 دقيقة قبل الساعة 10:30UTC
التوقعات صالحة من24 الساعة 12 UTC إلى 25 الساعة 12 UTC
ريح 3 عقدة من الجنوب/الجنوب الشرقي
الرؤية 10 كم أو أكثر
غيوم قليلة على ارتفاع 2400 قدم
غيوم متفرقة على ارتفاع 9000 قدم
أصبح
من 24 الساعة 16 UTC إلى 24 الساعة 18 UTC
ريح 12 عقدة من الشمال/الشمال الشرقي
غيوم متفرقة على ارتفاع 2600 قدم, مزن ركامية عمودية.
أصبح
من 25 الساعة 03 UTC إلى 25 الساعة 05 UTC
ريح 4 عقدة من الجنوب الشرقي
غيوم قليلة على ارتفاع 2800 قدم

TAF: MHLC 241030Z 2412/2512 15003KT 9999 FEW024 SCT090 TX31/2420Z TN22/2512Z BECMG 2416/2418 03012KT SCT026TCU BECMG 2503/2505 13004KT FEW028

أرصاد الطقس والتوقعات من أكثر من 4000 مطار (تقارير الطقس للمطار METAR والتنبؤ بالطقس بالمطارTAF).

المحطات المتاحة هي النقط الصفراء والحمراء على الخريطة.

حرك المؤشر فوق النقطة لمعرفة اسم المحطة.

ثم انقر لمعرفة أرصاد وتوقعات الطقس.

لتغيير الخارطة: اضغط على الأزرار الخضراء مع رمز الصليب الأسود للتكبير. على الزر الأخضر مع شرطة للتصغير، أو على الأسهم الخضراء للخرائط المجاورة.


METAR-TAF: